Time;durP1;ratioP1;P1;durP2;ratioP2;P2;SDS_P1;SDS_P2;PMS_P1;PMS_P2;Temp;Humidity;BMP_temperature;BMP_pressure;BME280_temperature;BME280_humidity;BME280_pressure;Samples;Min_cycle;Max_cycle;Signal;HPM_P1;HPM_P2
2021/03/04 00:01:10;;;;;;;37.50;20.50;;;;;;;5.41;76.61;102215.28;4915147;29;20054;-51
2021/03/04 00:03:37;;;;;;;42.05;20.65;;;;;;;5.38;76.63;102213.06;4923034;29;20067;-54
2021/03/04 00:06:03;;;;;;;35.95;18.95;;;;;;;5.34;76.67;102217.47;4934514;29;20093;-55
2021/03/04 00:08:29;;;;;;;36.95;19.67;;;;;;;5.32;76.36;102214.16;4936503;29;20421;-56
2021/03/04 00:10:56;;;;;;;34.53;19.30;;;;;;;5.30;76.59;102216.38;4935962;29;20122;-52
2021/03/04 00:13:22;;;;;;;35.10;19.33;;;;;;;5.28;76.58;102218.56;4935987;29;20118;-55
2021/03/04 00:15:50;;;;;;;34.03;18.42;;;;;;;5.31;76.61;102208.97;4935118;29;20417;-57
2021/03/04 00:18:17;;;;;;;32.22;19.52;;;;;;;5.32;76.73;102214.16;4924240;29;20055;-52
2021/03/04 00:20:43;;;;;;;32.63;17.95;;;;;;;5.29;76.59;102209.25;4935919;29;20055;-54
2021/03/04 00:23:09;;;;;;;29.88;17.00;;;;;;;5.25;76.67;102202.63;4934463;29;20048;-55
2021/03/04 00:25:36;;;;;;;33.40;16.02;;;;;;;5.23;76.32;102209.50;4934899;29;20063;-52
2021/03/04 00:28:06;;;;;;;32.83;18.40;;;;;;;5.22;76.60;102202.34;4935363;29;20474;-53
2021/03/04 00:30:33;;;;;;;30.83;16.70;;;;;;;5.22;76.68;102213.34;4934666;29;20055;-54
2021/03/04 00:32:59;;;;;;;32.88;16.63;;;;;;;5.21;76.47;102212.53;4922636;29;20136;-55
2021/03/04 00:35:26;;;;;;;30.60;17.17;;;;;;;5.22;76.71;102202.34;4935045;29;20047;-57
2021/03/04 00:37:52;;;;;;;26.60;16.15;;;;;;;5.24;76.51;102200.97;4935573;29;20414;-54
2021/03/04 00:40:24;;;;;;;26.88;13.60;;;;;;;5.23;76.78;102202.09;4934868;29;20052;-51
2021/03/04 00:42:51;;;;;;;34.42;16.92;;;;;;;5.21;76.50;102212.53;4934780;29;20435;-51
2021/03/04 00:45:23;;;;;;;33.15;17.83;;;;;;;5.21;76.39;102212.53;4921165;29;20054;-51
2021/03/04 00:48:05;;;;;;;29.55;16.63;;;;;;;5.19;76.53;102211.16;4924155;29;20054;-52
2021/03/04 00:50:39;;;;;;;32.28;15.90;;;;;;;5.19;76.67;102217.44;4920709;29;20076;-56
2021/03/04 00:53:06;;;;;;;33.88;20.05;;;;;;;5.21;76.74;102214.44;4934729;29;20054;-53
2021/03/04 00:55:35;;;;;;;30.80;16.77;;;;;;;5.19;76.27;102214.72;4934148;29;20490;-52
2021/03/04 00:58:02;;;;;;;29.58;16.00;;;;;;;5.17;76.27;102216.09;4935310;29;20101;-51
2021/03/04 01:00:29;;;;;;;34.33;16.55;;;;;;;5.20;76.24;102199.91;4933203;29;20056;-54
2021/03/04 01:02:55;;;;;;;35.03;15.43;;;;;;;5.18;76.06;102215.81;4924989;29;20119;-55
2021/03/04 01:05:22;;;;;;;31.52;16.20;;;;;;;5.18;76.47;102218.56;4934399;29;20048;-54
2021/03/04 01:07:48;;;;;;;32.40;16.38;;;;;;;5.18;76.29;102218.56;4934108;29;20059;-54
2021/03/04 01:10:18;;;;;;;30.88;16.30;;;;;;;5.14;76.41;102211.13;4934223;29;20127;-51
2021/03/04 01:12:44;;;;;;;30.10;16.17;;;;;;;5.12;76.06;102208.69;4933613;29;20210;-53
2021/03/04 01:15:16;;;;;;;28.90;16.02;;;;;;;5.10;76.09;102210.88;4934208;29;20071;-53
2021/03/04 01:17:42;;;;;;;27.05;15.52;;;;;;;5.11;76.13;102200.72;4926940;29;20491;-56
2021/03/04 01:20:11;;;;;;;24.02;14.57;;;;;;;5.12;76.14;102200.44;4929447;29;20048;-55
2021/03/04 01:22:38;;;;;;;29.92;18.48;;;;;;;5.15;76.09;102202.63;4933965;29;20078;-55
2021/03/04 01:25:07;;;;;;;26.63;14.23;;;;;;;5.14;76.00;102200.97;4934303;29;20090;-53
2021/03/04 01:27:35;;;;;;;29.00;15.77;;;;;;;5.13;76.09;102210.34;4934586;29;20126;-52
2021/03/04 01:30:03;;;;;;;29.58;16.10;;;;;;;5.14;75.61;102206.47;4933471;29;20059;-56
2021/03/04 01:32:30;;;;;;;25.33;15.40;;;;;;;5.13;76.02;102207.59;4916981;29;20044;-53
2021/03/04 01:34:58;;;;;;;31.50;16.60;;;;;;;5.10;75.77;102208.13;4918081;29;20039;-52
2021/03/04 01:37:24;;;;;;;29.70;16.20;;;;;;;5.05;75.75;102202.63;4933192;29;20525;-53
2021/03/04 01:39:50;;;;;;;28.65;14.85;;;;;;;5.05;76.02;102205.38;4934272;29;20044;-52
2021/03/04 01:42:18;;;;;;;29.05;15.85;;;;;;;5.06;76.06;102198.78;4934485;29;20458;-54
2021/03/04 01:44:44;;;;;;;26.80;15.65;;;;;;;5.07;76.02;102194.94;4917705;29;20126;-53
2021/03/04 01:47:13;;;;;;;30.73;15.70;;;;;;;5.05;75.62;102204.56;4917330;29;20047;-54
2021/03/04 01:49:41;;;;;;;31.08;15.05;;;;;;;4.99;76.01;102195.47;4934021;29;20055;-54
2021/03/04 01:52:10;;;;;;;25.48;14.02;;;;;;;4.95;76.03;102199.84;4934133;29;20051;-55
2021/03/04 01:54:36;;;;;;;24.95;13.98;;;;;;;4.92;75.59;102203.16;4934493;29;20108;-53
2021/03/04 01:57:03;;;;;;;26.30;14.35;;;;;;;4.89;75.83;102184.50;4933226;29;20051;-57
2021/03/04 01:59:30;;;;;;;28.88;14.98;;;;;;;4.89;75.83;102192.72;4932168;29;20154;-57
2021/03/04 02:01:56;;;;;;;26.55;14.02;;;;;;;4.88;75.56;102196.56;4932022;29;20055;-51
2021/03/04 02:04:23;;;;;;;28.20;15.98;;;;;;;4.85;75.71;102188.88;4915491;29;20127;-54
2021/03/04 02:07:02;;;;;;;22.40;13.80;;;;;;;4.82;75.35;102186.66;4914645;29;20126;-50
2021/03/04 02:09:31;;;;;;;35.67;16.00;;;;;;;4.82;75.58;102187.50;4919238;29;20398;-52
2021/03/04 02:12:27;;;;;;;29.23;15.98;;;;;;;4.82;75.40;102176.53;4919191;29;20083;-52
2021/03/04 02:14:58;;;;;;;29.27;15.32;;;;;;;4.85;75.56;102166.91;4922726;29;20124;-51
2021/03/04 02:17:27;;;;;;;28.23;16.30;;;;;;;4.85;75.60;102166.91;4931930;29;20127;-52
2021/03/04 02:20:06;;;;;;;30.23;15.98;;;;;;;4.79;75.36;102171.56;4918955;29;20492;-57
2021/03/04 02:23:03;;;;;;;26.58;14.80;;;;;;;4.77;75.61;102161.97;4902152;29;20063;-55
2021/03/04 02:25:58;;;;;;;26.80;14.95;;;;;;;4.79;75.66;102165.28;4918767;29;20044;-55
2021/03/04 02:28:26;;;;;;;28.23;14.70;;;;;;;4.74;75.71;102154.28;4919013;29;20048;-53
2021/03/04 02:31:02;;;;;;;27.27;14.65;;;;;;;4.73;75.48;102158.97;4922322;29;20135;-54
2021/03/04 02:33:31;;;;;;;25.30;13.27;;;;;;;4.73;75.37;102160.88;4931695;29;20130;-57
2021/03/04 02:36:00;;;;;;;32.78;15.60;;;;;;;4.72;75.65;102160.03;4938109;29;20145;-53
2021/03/04 02:38:27;;;;;;;26.73;15.73;;;;;;;4.73;75.68;102158.13;4920404;29;20079;-50
2021/03/04 02:40:55;;;;;;;25.42;14.43;;;;;;;4.73;75.68;102166.38;4936635;29;20573;-52
2021/03/04 02:43:24;;;;;;;24.65;14.13;;;;;;;4.74;75.43;102174.31;4937441;29;20142;-51
2021/03/04 02:45:51;;;;;;;26.25;15.00;;;;;;;4.78;75.59;102174.59;4936041;29;20451;-52
2021/03/04 02:48:20;;;;;;;22.58;14.30;;;;;;;4.79;75.95;102173.50;4934407;29;20048;-52
2021/03/04 02:50:50;;;;;;;28.45;15.65;;;;;;;4.79;75.50;102170.78;4932881;29;20052;-52
2021/03/04 02:53:17;;;;;;;26.52;15.43;;;;;;;4.78;75.41;102163.63;4918493;29;20091;-57
2021/03/04 02:55:44;;;;;;;25.42;14.20;;;;;;;4.76;75.75;102157.59;4935923;29;20051;-55
2021/03/04 02:58:13;;;;;;;21.67;13.50;;;;;;;4.77;75.80;102153.72;4918071;29;20506;-54
2021/03/04 03:00:40;;;;;;;27.05;15.45;;;;;;;4.79;75.45;102159.78;4931758;29;20055;-53
2021/03/04 03:03:10;;;;;;;24.33;14.77;;;;;;;4.76;75.43;102152.09;4927163;29;20510;-53
2021/03/04 03:05:39;;;;;;;24.92;14.73;;;;;;;4.77;75.57;102156.47;4936460;29;20465;-51
2021/03/04 03:08:07;;;;;;;25.52;14.68;;;;;;;4.76;75.42;102155.69;4936202;29;20127;-51
2021/03/04 03:10:34;;;;;;;27.17;14.98;;;;;;;4.77;75.25;102151.00;4935661;29;20063;-51
2021/03/04 03:13:03;;;;;;;23.42;14.90;;;;;;;4.78;75.38;102149.91;4937262;29;20494;-51
2021/03/04 03:15:30;;;;;;;29.92;15.30;;;;;;;4.79;75.48;102143.34;4936316;29;20155;-53
2021/03/04 03:17:58;;;;;;;26.80;14.63;;;;;;;4.80;75.47;102134.81;4935729;29;20447;-51
2021/03/04 03:20:24;;;;;;;33.00;17.25;;;;;;;4.82;75.30;102138.09;4936103;29;20139;-54
2021/03/04 03:22:53;;;;;;;29.08;16.30;;;;;;;4.83;75.27;102133.44;4936760;29;20054;-56
2021/03/04 03:25:20;;;;;;;35.45;18.38;;;;;;;4.82;75.53;102131.78;4934409;29;20087;-55
2021/03/04 03:27:47;;;;;;;30.35;17.02;;;;;;;4.83;75.59;102128.78;4927277;29;20138;-56
2021/03/04 03:30:21;;;;;;;32.50;17.20;;;;;;;4.86;75.55;102127.41;4918207;29;20483;-54
2021/03/04 03:32:57;;;;;;;34.30;18.50;;;;;;;4.81;75.67;102124.69;4933828;29;20123;-52
2021/03/04 03:35:26;;;;;;;33.00;18.23;;;;;;;4.76;75.53;102121.94;4936821;29;20095;-52
2021/03/04 03:37:55;;;;;;;34.13;19.73;;;;;;;4.76;76.00;102135.66;4934574;29;20052;-57
2021/03/04 03:40:24;;;;;;;39.45;19.83;;;;;;;4.73;75.90;102122.47;4936388;29;20052;-53
2021/03/04 03:42:54;;;;;;;43.53;20.83;;;;;;;4.70;75.54;102117.53;4920669;29;20162;-50
2021/03/04 03:45:26;;;;;;;38.58;20.13;;;;;;;4.71;75.40;102119.19;4917691;29;20062;-57
2021/03/04 03:47:53;;;;;;;37.50;19.98;;;;;;;4.73;75.78;102117.81;4934995;29;20055;-52
2021/03/04 03:50:23;;;;;;;38.67;19.00;;;;;;;4.72;75.59;102120.81;4936051;29;20060;-56
2021/03/04 03:52:52;;;;;;;37.20;19.55;;;;;;;4.66;75.95;102121.91;4936050;29;20367;-53
2021/03/04 03:55:21;;;;;;;42.88;21.10;;;;;;;4.62;75.85;102118.06;4936422;29;20409;-54
2021/03/04 03:57:49;;;;;;;36.88;19.05;;;;;;;4.61;75.64;102119.97;4935475;29;20044;-53
2021/03/04 04:00:23;;;;;;;33.60;18.70;;;;;;;4.65;75.88;102114.78;4935673;29;20494;-53
2021/03/04 04:02:55;;;;;;;36.08;19.17;;;;;;;4.65;75.69;102120.25;4911503;29;20048;-54
2021/03/04 04:05:22;;;;;;;32.88;18.85;;;;;;;4.59;75.66;102113.13;4936420;29;20079;-55
2021/03/04 04:07:53;;;;;;;26.98;16.55;;;;;;;4.58;75.59;102119.72;4934722;29;20079;-54
2021/03/04 04:10:25;;;;;;;24.40;14.67;;;;;;;4.56;76.07;102121.88;4935685;29;20052;-56
2021/03/04 04:12:51;;;;;;;28.55;14.10;;;;;;;4.58;75.61;102120.50;4935443;29;20075;-55
2021/03/04 04:15:21;;;;;;;22.15;13.52;;;;;;;4.58;75.84;102117.78;4936489;29;20126;-53
2021/03/04 04:17:49;;;;;;;16.48;9.77;;;;;;;4.55;76.18;102115.59;4926049;29;20111;-50
2021/03/04 04:20:20;;;;;;;22.75;12.30;;;;;;;4.54;75.94;102118.59;4920534;29;20387;-57
2021/03/04 04:22:47;;;;;;;15.15;8.50;;;;;;;4.52;75.84;102110.66;4920800;29;20139;-54
2021/03/04 04:25:14;;;;;;;12.32;8.25;;;;;;;4.51;75.59;102110.91;4916596;29;20138;-54
2021/03/04 04:27:41;;;;;;;14.13;8.70;;;;;;;4.49;75.85;102111.19;4933205;29;20139;-52
2021/03/04 04:30:09;;;;;;;15.32;8.25;;;;;;;4.48;75.32;102111.44;4935017;29;20083;-50
2021/03/04 04:32:36;;;;;;;15.88;8.65;;;;;;;4.49;75.68;102116.66;4919273;29;20447;-50
2021/03/04 04:35:03;;;;;;;14.35;7.82;;;;;;;4.46;75.63;102121.88;4916301;29;20575;-53
2021/03/04 04:37:29;;;;;;;13.00;8.73;;;;;;;4.46;75.40;102116.38;4916846;29;20052;-56
2021/03/04 04:39:56;;;;;;;17.38;8.05;;;;;;;4.44;75.31;102124.88;4916566;29;20052;-51
2021/03/04 04:42:23;;;;;;;12.52;6.65;;;;;;;4.43;75.64;102122.41;4931956;29;20463;-52
2021/03/04 04:44:50;;;;;;;13.90;7.88;;;;;;;4.41;75.47;102125.44;4935368;29;20095;-50
2021/03/04 04:47:16;;;;;;;10.63;7.05;;;;;;;4.41;75.63;102124.59;4925218;29;20082;-54
2021/03/04 04:49:43;;;;;;;14.25;8.07;;;;;;;4.40;75.60;102123.75;4935082;29;20051;-55
2021/03/04 04:52:09;;;;;;;15.52;8.20;;;;;;;4.41;75.06;102125.44;4933885;29;20047;-54
2021/03/04 04:54:35;;;;;;;12.23;7.32;;;;;;;4.40;75.27;102117.44;4935415;29;20110;-53
2021/03/04 04:57:02;;;;;;;14.18;8.32;;;;;;;4.38;75.43;102117.75;4935194;29;20138;-53
2021/03/04 04:59:28;;;;;;;14.73;8.68;;;;;;;4.35;75.20;102118.28;4933963;29;20514;-51
2021/03/04 05:01:54;;;;;;;19.50;8.50;;;;;;;4.32;75.29;102125.13;4920244;29;20116;-52
2021/03/04 05:04:21;;;;;;;13.48;7.50;;;;;;;4.30;74.64;102123.75;4922842;29;20055;-54
2021/03/04 05:06:47;;;;;;;14.95;8.05;;;;;;;4.27;74.94;102111.41;4916120;29;20052;-51
2021/03/04 05:09:14;;;;;;;15.18;8.25;;;;;;;4.25;74.84;102116.34;4927012;29;20047;-51
2021/03/04 05:11:40;;;;;;;14.55;8.18;;;;;;;4.28;74.92;102118.53;4933628;29;20078;-53
2021/03/04 05:14:06;;;;;;;16.08;8.80;;;;;;;4.29;74.98;102117.44;4934302;29;20079;-52
2021/03/04 05:16:33;;;;;;;15.48;8.80;;;;;;;4.27;75.00;102118.81;4935237;29;20079;-53
2021/03/04 05:18:59;;;;;;;14.73;8.73;;;;;;;4.26;74.77;102117.16;4933923;29;20155;-53
2021/03/04 05:21:32;;;;;;;13.50;8.63;;;;;;;4.27;74.65;102125.13;4917664;29;20376;-52
2021/03/04 05:23:58;;;;;;;15.90;7.80;;;;;;;4.28;75.05;102123.19;4922986;29;20083;-54
2021/03/04 05:26:25;;;;;;;14.95;9.82;;;;;;;4.31;74.65;102117.19;4934674;29;20079;-53
2021/03/04 05:28:51;;;;;;;16.13;7.78;;;;;;;4.32;74.56;102116.91;4927644;29;20455;-55
2021/03/04 05:31:18;;;;;;;13.75;7.47;;;;;;;4.32;74.74;102116.91;4915197;29;20063;-52
2021/03/04 05:33:45;;;;;;;12.77;7.22;;;;;;;4.32;74.33;102114.16;4928842;29;20040;-51
2021/03/04 05:36:12;;;;;;;16.55;9.13;;;;;;;4.30;74.60;102113.63;4915692;29;20048;-52
2021/03/04 05:38:38;;;;;;;13.10;8.18;;;;;;;4.32;74.39;102111.41;4920249;29;20130;-51
2021/03/04 05:41:06;;;;;;;13.70;7.53;;;;;;;4.34;74.48;102124.03;4919014;29;20044;-53
2021/03/04 05:43:34;;;;;;;14.00;8.05;;;;;;;4.36;74.26;102119.09;4918141;29;20044;-53
2021/03/04 05:46:01;;;;;;;16.30;7.28;;;;;;;4.38;74.75;102120.47;4933963;29;20079;-55
2021/03/04 05:48:28;;;;;;;15.52;7.82;;;;;;;4.36;74.24;102119.09;4924240;29;20043;-52
2021/03/04 05:50:57;;;;;;;14.35;8.32;;;;;;;4.36;74.45;102127.34;4930673;29;20052;-51
2021/03/04 05:53:25;;;;;;;14.32;7.20;;;;;;;4.38;74.23;102119.66;4930153;29;20044;-56
2021/03/04 05:55:51;;;;;;;12.63;6.43;;;;;;;4.39;74.19;102122.13;4915252;29;20622;-52
2021/03/04 05:58:19;;;;;;;12.75;7.03;;;;;;;4.40;74.11;102117.44;4920990;29;20067;-50
2021/03/04 06:00:45;;;;;;;19.00;8.25;;;;;;;4.38;74.34;102127.88;4934205;29;20043;-56
2021/03/04 06:03:12;;;;;;;14.63;7.28;;;;;;;4.36;74.26;102121.84;4932904;29;20067;-51
2021/03/04 06:05:39;;;;;;;15.82;8.75;;;;;;;4.32;74.38;102122.38;4934000;29;20059;-56
2021/03/04 06:08:08;;;;;;;11.80;7.50;;;;;;;4.29;74.11;102122.91;4934184;29;20063;-52
2021/03/04 06:10:35;;;;;;;13.93;8.40;;;;;;;4.34;74.27;102115.81;4934122;29;20044;-51
2021/03/04 06:13:01;;;;;;;16.60;8.82;;;;;;;4.33;74.44;102123.22;4917090;29;20511;-53
2021/03/04 06:15:29;;;;;;;11.98;6.85;;;;;;;4.32;74.57;102127.88;4934115;29;20126;-51
2021/03/04 06:17:57;;;;;;;16.90;7.55;;;;;;;4.29;74.46;102122.91;4930633;29;20130;-52
2021/03/04 06:20:41;;;;;;;15.88;7.95;;;;;;;4.28;74.44;102115.81;4933327;29;20047;-57
2021/03/04 06:23:09;;;;;;;14.30;7.35;;;;;;;4.31;74.44;102112.50;4932606;29;20074;-54
2021/03/04 06:25:36;;;;;;;13.85;7.93;;;;;;;4.32;74.66;102119.63;4933918;29;20106;-53
2021/03/04 06:28:05;;;;;;;15.93;7.85;;;;;;;4.35;74.71;102125.66;4934219;29;20454;-51
2021/03/04 06:30:36;;;;;;;10.18;6.38;;;;;;;4.36;74.54;102121.84;4933804;29;20063;-53
2021/03/04 06:33:08;;;;;;;16.08;8.43;;;;;;;4.37;74.67;102129.78;4932831;29;20494;-52
2021/03/04 06:35:36;;;;;;;;;;;;;;;4.32;74.54;102122.38;4934518;29;20067;-52
2021/03/04 06:38:16;;;;;;;15.50;9.18;;;;;;;4.32;74.83;102122.38;4934450;29;20047;-53
2021/03/04 06:40:43;;;;;;;16.80;8.27;;;;;;;4.36;74.58;102128.16;4934019;29;20047;-54
2021/03/04 06:43:18;;;;;;;18.90;7.90;;;;;;;4.36;74.65;102121.84;4934348;29;20082;-51
2021/03/04 06:45:45;;;;;;;13.55;7.82;;;;;;;4.35;74.86;102131.16;4933300;29;20043;-51
2021/03/04 06:48:16;;;;;;;14.25;7.25;;;;;;;4.38;74.59;102125.13;4922163;29;20040;-50
2021/03/04 06:50:44;;;;;;;15.48;8.20;;;;;;;4.39;74.67;102126.78;4926197;29;20104;-51
2021/03/04 06:53:22;;;;;;;14.30;7.75;;;;;;;4.39;75.05;102121.31;4933934;29;20083;-52
2021/03/04 06:56:01;;;;;;;14.68;7.80;;;;;;;4.40;74.80;102122.94;4937003;29;20186;-52
2021/03/04 06:58:31;;;;;;;14.75;7.72;;;;;;;4.40;74.79;102140.22;4937462;29;20052;-52
2021/03/04 07:01:14;;;;;;;17.30;7.68;;;;;;;4.39;74.60;102144.06;4936938;29;20071;-52
2021/03/04 07:03:45;;;;;;;17.05;7.55;;;;;;;4.37;74.66;102142.69;4932803;29;20136;-51
2021/03/04 07:06:36;;;;;;;11.98;7.05;;;;;;;4.34;74.83;102137.75;4936967;29;20394;-52
2021/03/04 07:09:05;;;;;;;12.90;7.72;;;;;;;4.34;74.72;102144.06;4936778;29;20409;-53
2021/03/04 07:11:35;;;;;;;13.90;6.90;;;;;;;4.31;75.09;102148.13;4936725;29;20453;-52
2021/03/04 07:14:04;;;;;;;17.92;9.05;;;;;;;4.27;75.04;102144.31;4937076;29;20406;-52
2021/03/04 07:16:37;;;;;;;17.10;8.75;;;;;;;4.26;74.88;102148.13;4937051;29;20098;-51
2021/03/04 07:19:10;;;;;;;14.05;7.57;;;;;;;4.28;74.96;102150.63;4918957;29;20146;-52
2021/03/04 07:21:40;;;;;;;18.08;8.75;;;;;;;4.28;74.74;102153.34;4917720;29;20048;-50
2021/03/04 07:24:07;;;;;;;19.15;9.18;;;;;;;4.23;74.99;102151.44;4917803;29;20568;-50
2021/03/04 07:26:36;;;;;;;13.55;8.40;;;;;;;4.21;74.92;102159.06;4917825;29;20495;-54
2021/03/04 07:29:08;;;;;;;16.42;8.77;;;;;;;4.20;75.25;102168.41;4917694;29;20051;-52
2021/03/04 07:31:36;;;;;;;15.13;8.47;;;;;;;4.24;75.21;102168.69;4922783;29;20040;-52
2021/03/04 07:34:04;;;;;;;17.38;9.30;;;;;;;4.24;75.19;102169.50;4921613;29;20052;-50
2021/03/04 07:36:31;;;;;;;20.00;8.57;;;;;;;4.24;75.25;102174.16;4936151;29;20135;-50
2021/03/04 07:38:59;;;;;;;15.80;9.07;;;;;;;4.23;75.03;102175.28;4936569;29;20051;-52
2021/03/04 07:41:42;;;;;;;20.23;9.77;;;;;;;4.20;75.05;102178.53;4929358;29;20456;-51
2021/03/04 07:44:11;;;;;;;17.15;8.65;;;;;;;4.15;75.22;102184.00;4934675;29;20086;-54
2021/03/04 07:46:50;;;;;;;16.55;8.95;;;;;;;4.07;75.47;102185.34;4936235;29;20047;-50
2021/03/04 07:49:31;;;;;;;19.08;8.73;;;;;;;4.08;75.40;102189.72;4917626;29;20044;-51
2021/03/04 07:52:14;;;;;;;18.02;10.15;;;;;;;4.15;75.47;102181.25;4929468;29;20079;-52
2021/03/04 07:54:42;;;;;;;15.95;9.18;;;;;;;4.20;75.28;102178.53;4917748;29;20051;-56
2021/03/04 07:57:11;;;;;;;15.02;7.75;;;;;;;4.21;75.24;102178.25;4917141;29;20451;-52
2021/03/04 07:59:59;;;;;;;15.32;7.70;;;;;;;4.21;75.41;102174.69;4917196;29;20048;-56
2021/03/04 08:02:31;;;;;;;14.75;9.20;;;;;;;4.21;75.28;102181.00;4918118;29;20483;-52
2021/03/04 08:05:31;;;;;;;11.75;6.72;;;;;;;4.22;75.11;102184.56;4935460;29;20601;-56
2021/03/04 08:08:09;;;;;;;13.73;7.43;;;;;;;4.20;75.07;102184.84;4935987;29;20079;-55
2021/03/04 08:10:53;;;;;;;13.52;7.10;;;;;;;4.22;75.02;102181.84;4935415;29;20106;-55
2021/03/04 08:13:38;;;;;;;14.63;9.05;;;;;;;4.23;74.95;102184.31;4935059;29;20447;-55
2021/03/04 08:16:15;;;;;;;14.95;8.20;;;;;;;4.25;75.13;102176.66;4935478;29;20078;-55
2021/03/04 08:18:57;;;;;;;13.93;7.30;;;;;;;4.27;75.43;102187.34;4935387;29;20521;-57
2021/03/04 08:21:24;;;;;;;16.85;7.93;;;;;;;4.31;75.30;102189.25;4934012;29;20573;-53
2021/03/04 08:23:52;;;;;;;12.25;8.02;;;;;;;4.31;75.16;102196.69;4935616;29;20119;-55
2021/03/04 08:26:26;;;;;;;15.27;7.82;;;;;;;4.29;75.03;102194.19;4933360;29;20131;-57
2021/03/04 08:29:06;;;;;;;17.23;8.60;;;;;;;4.34;75.44;102200.81;4925848;29;20098;-54
2021/03/04 08:31:33;;;;;;;14.98;7.72;;;;;;;4.36;75.09;102195.88;4918170;29;20039;-55
2021/03/04 08:34:00;;;;;;;11.48;7.18;;;;;;;4.37;75.13;102197.53;4935430;29;20044;-53
2021/03/04 08:36:38;;;;;;;14.23;7.90;;;;;;;4.37;75.07;102194.78;4934517;29;21603;-55
2021/03/04 08:39:05;;;;;;;14.27;7.47;;;;;;;4.38;75.40;102191.75;4935241;29;20075;-56
2021/03/04 08:41:31;;;;;;;13.27;6.63;;;;;;;4.39;75.10;102198.91;4935426;29;20111;-57
2021/03/04 08:44:17;;;;;;;14.38;7.47;;;;;;;4.41;75.04;102201.38;4935539;29;20131;-56
2021/03/04 08:46:48;;;;;;;14.98;9.00;;;;;;;4.38;75.17;102201.91;4918505;29;20079;-57
2021/03/04 08:49:22;;;;;;;14.35;7.88;;;;;;;4.40;74.97;102207.94;4935396;29;20083;-57
2021/03/04 08:51:51;;;;;;;14.65;7.43;;;;;;;4.42;75.01;102197.53;4924729;29;20399;-56
2021/03/04 08:54:25;;;;;;;15.02;7.05;;;;;;;4.44;74.89;102203.59;4913168;29;20114;-57
2021/03/04 08:56:55;;;;;;;13.63;7.38;;;;;;;4.47;75.24;102200.31;4923068;29;20100;-58
2021/03/04 08:59:23;;;;;;;15.18;7.05;;;;;;;4.49;75.04;102214.56;4913824;29;20072;-53
2021/03/04 09:01:49;;;;;;;17.05;7.82;;;;;;;4.53;75.34;102204.69;4915857;29;20107;-56
2021/03/04 09:04:20;;;;;;;13.27;7.18;;;;;;;4.54;75.05;102198.94;4903335;29;20410;-56
2021/03/04 09:06:47;;;;;;;20.70;8.48;;;;;;;4.55;75.41;102211.59;4922073;29;20149;-56
2021/03/04 09:09:25;;;;;;;17.63;8.18;;;;;;;4.55;75.35;102202.53;4924166;29;20111;-57
2021/03/04 09:11:52;;;;;;;15.80;8.05;;;;;;;4.58;75.35;102207.47;4919979;29;20126;-57
2021/03/04 09:14:26;;;;;;;12.50;7.20;;;;;;;4.57;75.28;102203.06;4923623;29;20051;-57
2021/03/04 09:16:54;;;;;;;12.73;7.13;;;;;;;4.60;75.39;102199.78;4922175;29;20044;-57
2021/03/04 09:19:39;;;;;;;14.52;7.20;;;;;;;4.62;75.30;102206.66;4930172;29;20446;-59
2021/03/04 09:22:09;;;;;;;16.75;7.20;;;;;;;4.64;75.24;102209.13;4923192;29;20083;-57
2021/03/04 09:24:38;;;;;;;16.20;7.38;;;;;;;4.68;75.08;102202.00;4915728;29;20063;-55
2021/03/04 09:27:09;;;;;;;14.10;8.23;;;;;;;4.72;75.14;102208.59;4917469;29;20095;-55
2021/03/04 09:29:39;;;;;;;18.60;7.22;;;;;;;4.73;75.31;102211.09;4927447;29;20063;-56
2021/03/04 09:32:11;;;;;;;14.65;8.10;;;;;;;4.74;75.05;102200.91;4917209;29;20046;-55
2021/03/04 09:34:42;;;;;;;15.93;7.63;;;;;;;4.76;75.32;102204.22;4930685;29;20139;-58
2021/03/04 09:37:22;;;;;;;16.90;8.02;;;;;;;4.82;75.08;102197.63;4927586;29;20039;-59
2021/03/04 09:39:50;;;;;;;14.77;8.05;;;;;;;4.85;75.11;102202.59;4927578;29;20071;-58
2021/03/04 09:42:19;;;;;;;16.00;7.32;;;;;;;4.87;75.17;102200.41;4916752;29;20110;-57
2021/03/04 09:44:56;;;;;;;23.10;8.63;;;;;;;4.88;75.07;102196.56;4930173;29;20143;-57
2021/03/04 09:47:28;;;;;;;16.65;8.75;;;;;;;4.94;74.92;102200.97;4922053;29;20056;-58
2021/03/04 09:49:55;;;;;;;14.43;7.80;;;;;;;4.98;75.20;102202.06;4930402;29;20051;-56
2021/03/04 09:52:28;;;;;;;17.30;7.93;;;;;;;5.00;75.29;102197.16;4923473;29;20557;-57
2021/03/04 09:55:11;;;;;;;;;;;;;;;5.01;75.10;102198.78;4931192;29;20044;-54
2021/03/04 09:57:40;;;;;;;17.67;6.47;;;;;;;5.02;75.14;102200.44;4923572;29;20654;-59
2021/03/04 10:00:16;;;;;;;11.85;6.68;;;;;;;5.06;75.15;102197.94;4927687;29;20048;-52
2021/03/04 10:02:50;;;;;;;12.15;6.25;;;;;;;5.11;75.13;102212.50;4922515;29;20043;-59
2021/03/04 10:05:20;;;;;;;15.25;6.30;;;;;;;5.17;75.26;102205.94;4912112;29;20051;-57
2021/03/04 10:07:49;;;;;;;14.18;5.38;;;;;;;5.22;75.05;102197.69;4920249;29;20047;-56
2021/03/04 10:10:20;;;;;;;12.10;5.85;;;;;;;5.27;75.24;102203.19;4930559;29;20102;-56
2021/03/04 10:12:52;;;;;;;13.65;5.63;;;;;;;5.31;75.00;102204.28;4931304;29;20123;-57
2021/03/04 10:15:28;;;;;;;13.65;6.10;;;;;;;5.35;75.04;102199.88;4931444;29;20168;-57
2021/03/04 10:17:56;;;;;;;12.30;6.55;;;;;;;5.34;75.15;102202.91;4928900;29;20051;-56
2021/03/04 10:20:23;;;;;;;14.45;5.45;;;;;;;5.38;74.81;102201.25;4908825;29;20156;-57
2021/03/04 10:22:50;;;;;;;19.70;8.88;;;;;;;5.40;75.10;102213.63;4918506;29;20040;-55
2021/03/04 10:25:17;;;;;;;15.25;8.05;;;;;;;5.44;74.76;102211.16;4912762;29;20075;-58
2021/03/04 10:27:44;;;;;;;16.98;9.55;;;;;;;5.45;74.76;102202.63;4929985;29;20067;-57
2021/03/04 10:30:12;;;;;;;19.50;6.57;;;;;;;5.47;74.87;102205.94;4933584;29;20082;-53
2021/03/04 10:32:42;;;;;;;17.98;6.75;;;;;;;5.50;74.96;102216.38;4933479;29;20097;-57
2021/03/04 10:35:11;;;;;;;15.02;6.97;;;;;;;5.48;74.64;102204.81;4930534;29;20047;-57
2021/03/04 10:37:39;;;;;;;15.82;7.15;;;;;;;5.47;74.70;102208.69;4931497;29;20048;-57
2021/03/04 10:40:07;;;;;;;17.52;6.72;;;;;;;5.50;74.68;102216.38;4927871;29;20559;-59
2021/03/04 10:42:34;;;;;;;15.50;8.27;;;;;;;5.51;74.50;102222.69;4919412;29;20119;-58
2021/03/04 10:45:02;;;;;;;15.18;6.72;;;;;;;5.50;74.60;102210.88;4914082;29;20055;-59
2021/03/04 10:47:29;;;;;;;19.70;6.55;;;;;;;5.52;74.59;102207.84;4930538;29;20064;-55
2021/03/04 10:49:56;;;;;;;15.27;7.65;;;;;;;5.50;74.59;102216.38;4933275;29;20090;-57
2021/03/04 10:52:24;;;;;;;15.57;7.45;;;;;;;5.50;74.72;102210.88;4921373;29;20138;-60
2021/03/04 10:54:52;;;;;;;21.27;8.02;;;;;;;5.50;74.54;102210.88;4932763;29;20153;-60
2021/03/04 10:57:19;;;;;;;21.77;7.53;;;;;;;5.51;74.85;102207.03;4916541;29;20525;-57
2021/03/04 10:59:45;;;;;;;15.45;8.95;;;;;;;5.53;74.70;102207.56;4916235;29;20047;-55
2021/03/04 11:02:11;;;;;;;20.88;9.43;;;;;;;5.56;74.90;102210.88;4930777;29;20055;-59
2021/03/04 11:04:38;;;;;;;24.45;9.40;;;;;;;5.58;74.64;102214.16;4919584;29;20529;-56
2021/03/04 11:07:04;;;;;;;24.25;9.40;;;;;;;5.60;74.52;102210.03;4932948;29;20067;-57
2021/03/04 11:09:31;;;;;;;30.23;11.93;;;;;;;5.62;74.83;102220.75;4933519;29;20044;-56
2021/03/04 11:12:00;;;;;;;31.15;13.60;;;;;;;5.66;74.52;102230.94;4914860;29;20166;-53
2021/03/04 11:14:27;;;;;;;28.13;13.93;;;;;;;5.64;74.37;102227.59;4931495;29;20095;-55
2021/03/04 11:16:54;;;;;;;34.00;16.45;;;;;;;5.61;73.59;102217.19;4933467;29;20047;-55
2021/03/04 11:19:21;;;;;;;36.42;17.77;;;;;;;5.66;73.91;102224.59;4934863;29;20056;-58
2021/03/04 11:21:47;;;;;;;31.55;15.52;;;;;;;5.69;73.78;102237.78;4931621;29;20058;-56
2021/03/04 11:24:13;;;;;;;32.63;15.77;;;;;;;5.72;73.93;102224.31;4922204;29;20131;-58
2021/03/04 11:26:40;;;;;;;30.65;15.18;;;;;;;5.73;73.75;102230.63;4920210;29;20048;-58
2021/03/04 11:29:07;;;;;;;32.58;15.27;;;;;;;5.75;73.54;102233.91;4914742;29;20502;-57
2021/03/04 11:31:36;;;;;;;34.33;16.40;;;;;;;5.77;73.41;102231.75;4914491;29;20570;-57
2021/03/04 11:34:03;;;;;;;29.77;15.30;;;;;;;5.77;73.39;102232.53;4931947;29;20059;-57